9°C Temp
'.PHP_EOL;
7°C Dugpunkt
87% Fugtighed
Temperatur
5 KM/H
3 MPH
3 KTS
270°
Due West

Wind
Mostly Scattered Clouds
Pressure 1034.91 (hPa)- 30.56 (in)
Visibility 4.4 (mi) - 7 (km)

Current Conditions
EBBR
Location Brussels 55(km)
Metar:
EBBR 311550Z 27003KT 7000 SCT014 BKN027 09/07 Q1035 NOSIG
Mon 31st December 16:50 pm

Airport
  Metar Aviation API Data Provided by https://www.checkwx.com/